In Rescue
 
Open Full Screen Window  High Contrast Mode
Wind Gusting 14 knots
05
May 25, 2022 9:36 PM CDT
Weather Information
Wind Direction
  040 °
Wind Speed
  05 kt (6 mph)
Wind Gust
  14 kt (16 mph)
Altimeter
29.86 in
Visibility
10 SM
Temperature
10° C
50° F
Dewpoint
08° C
46° F
Humidity
88%
1hr Rain Fall
00.00 in.
24hr Rain Fall
00.21 in.
Sky Condition
Overcast @ 1,700 ft
Broken @ 1,200 ft
MVFR

METAR KGYL 260236Z AUTO 04005G14KT 10SM BKN012 OVC017 10/08 A2986 RMK AO2 T00960080

FAA Disclaimer: The data displayed is for advisory purposes only and is not to be used for flight planning or operations.